Time;durP1;ratioP1;P1;durP2;ratioP2;P2;SDS_P1;SDS_P2;PMS_P1;PMS_P2;Temp;Humidity;BMP_temperature;BMP_pressure;BME280_temperature;BME280_humidity;BME280_pressure;Samples;Min_cycle;Max_cycle;Signal;HPM_P1;HPM_P2
2022/07/31 00:00:39;;;;;;;12.45;6.70;;;16.20;1.00;;;;;;4918896;29;20059;-88
2022/07/31 00:03:27;;;;;;;5.90;4.15;;;16.20;1.00;;;;;;4906420;29;20454;-87
2022/07/31 00:06:14;;;;;;;7.00;4.25;;;16.30;1.00;;;;;;4915397;29;20044;-86
2022/07/31 00:09:01;;;;;;;4.97;3.40;;;16.30;1.00;;;;;;4928882;29;20193;-87
2022/07/31 00:11:48;;;;;;;6.80;3.00;;;16.30;1.00;;;;;;4917314;29;20067;-85
2022/07/31 00:14:35;;;;;;;4.85;3.10;;;16.30;1.00;;;;;;4915824;29;20071;-86
2022/07/31 00:17:22;;;;;;;9.50;3.83;;;16.30;1.00;;;;;;4917896;29;20051;-85
2022/07/31 00:20:14;;;;;;;4.90;3.15;;;16.40;1.00;;;;;;4921907;29;20044;-84
2022/07/31 00:23:02;;;;;;;3.25;2.90;;;16.50;1.00;;;;;;4919942;29;20106;-85
2022/07/31 00:25:49;;;;;;;7.82;3.28;;;16.60;1.00;;;;;;4920569;29;20056;-85
2022/07/31 00:28:37;;;;;;;6.32;2.53;;;16.60;1.00;;;;;;4915147;29;20186;-86
2022/07/31 00:31:24;;;;;;;7.32;3.00;;;16.60;1.00;;;;;;4920825;29;20138;-86
2022/07/31 00:34:14;;;;;;;6.00;2.85;;;16.60;1.00;;;;;;4923814;29;20155;-86
2022/07/31 00:37:01;;;;;;;4.75;2.92;;;16.60;1.00;;;;;;4918772;29;20119;-86
2022/07/31 00:39:49;;;;;;;3.30;2.50;;;16.70;1.00;;;;;;4927153;29;20044;-86
2022/07/31 00:42:38;;;;;;;4.38;2.92;;;16.70;1.00;;;;;;4928581;29;20454;-86
2022/07/31 00:45:26;;;;;;;5.97;2.47;;;16.60;1.00;;;;;;4911889;29;20044;-86
2022/07/31 00:48:15;;;;;;;4.75;2.40;;;16.70;1.00;;;;;;4922350;29;20044;-86
2022/07/31 00:51:06;;;;;;;5.20;3.42;;;16.80;1.00;;;;;;4923748;29;20052;-85
2022/07/31 00:53:58;;;;;;;4.80;2.50;;;16.80;1.00;;;;;;4919012;29;20140;-85
2022/07/31 00:56:45;;;;;;;4.57;2.90;;;16.70;1.00;;;;;;4916608;29;20136;-86
2022/07/31 00:59:34;;;;;;;5.03;2.67;;;16.60;1.00;;;;;;4931333;29;20177;-86
2022/07/31 01:02:22;;;;;;;4.05;2.78;;;16.50;2.60;;;;;;4936954;29;20092;-85
2022/07/31 01:05:12;;;;;;;6.63;2.70;;;16.30;15.40;;;;;;4911221;29;20044;-86
2022/07/31 01:07:59;;;;;;;4.30;2.70;;;16.20;1.00;;;;;;4925197;29;20052;-86
2022/07/31 01:11:00;;;;;;;8.27;3.10;;;16.30;1.00;;;;;;4927440;29;20051;-85
2022/07/31 01:13:54;;;;;;;5.05;2.92;;;16.30;2.80;;;;;;4912191;29;20540;-85
2022/07/31 01:16:45;;;;;;;5.55;3.30;;;16.20;5.80;;;;;;4923929;29;20388;-85
2022/07/31 01:19:41;;;;;;;2.95;2.45;;;16.00;21.40;;;;;;4913034;29;20147;-85
2022/07/31 01:22:56;;;;;;;4.68;3.03;;;15.90;20.20;;;;;;4919534;29;20040;-84
2022/07/31 01:25:52;;;;;;;4.85;3.28;;;15.90;23.00;;;;;;4919831;29;20048;-85
2022/07/31 01:29:15;;;;;;;3.63;2.63;;;15.80;21.10;;;;;;4921184;29;20500;-85
2022/07/31 01:32:08;;;;;;;8.32;3.38;;;15.80;21.20;;;;;;4838390;29;20149;-85
2022/07/31 01:35:32;;;;;;;4.75;2.85;;;15.70;27.40;;;;;;4920490;29;20059;-84
2022/07/31 01:38:43;;;;;;;7.72;3.00;;;15.70;26.20;;;;;;4905477;29;20052;-86
2022/07/31 01:41:39;;;;;;;2.97;2.70;;;15.70;16.60;;;;;;4926882;29;20063;-85
2022/07/31 01:44:28;;;;;;;5.60;2.95;;;15.60;25.90;;;;;;4913316;29;20048;-86
2022/07/31 01:47:18;;;;;;;5.15;2.80;;;15.50;26.60;;;;;;4920833;29;20056;-86
2022/07/31 01:50:07;;;;;;;4.57;2.92;;;15.40;29.90;;;;;;4922068;29;20126;-86
2022/07/31 01:53:20;;;;;;;3.53;2.53;;;15.40;33.30;;;;;;4917112;29;20346;-86
2022/07/31 01:56:10;;;;;;;9.18;3.00;;;15.30;33.20;;;;;;4925676;29;20060;-85
2022/07/31 01:58:59;;;;;;;3.22;2.70;;;15.30;31.70;;;;;;4912863;29;20063;-85
2022/07/31 02:01:48;;;;;;;3.38;2.72;;;15.20;31.40;;;;;;4908814;29;20466;-86
2022/07/31 02:04:38;;;;;;;2.58;2.38;;;15.20;45.00;;;;;;4918443;29;20107;-86
2022/07/31 02:07:26;;;;;;;2.60;2.40;;;15.20;41.70;;;;;;4921454;29;20052;-85
2022/07/31 02:10:15;;;;;;;4.53;2.67;;;15.20;36.60;;;;;;4927290;29;20044;-86
2022/07/31 02:13:04;;;;;;;5.22;2.60;;;15.20;26.30;;;;;;4916489;29;20139;-86
2022/07/31 02:15:52;;;;;;;2.88;2.50;;;15.20;19.30;;;;;;4912099;29;20055;-86
2022/07/31 02:18:41;;;;;;;3.55;2.97;;;15.20;23.80;;;;;;4912904;29;20142;-85
2022/07/31 02:21:30;;;;;;;5.97;2.80;;;15.20;52.70;;;;;;4902449;29;20048;-86
2022/07/31 02:24:17;;;;;;;4.13;2.65;;;15.10;66.30;;;;;;4903817;29;20492;-86
2022/07/31 02:27:05;;;;;;;6.18;2.85;;;15.10;58.80;;;;;;4921100;29;20067;-86
2022/07/31 02:30:14;;;;;;;5.13;2.40;;;14.90;74.00;;;;;;4919319;29;20123;-84
2022/07/31 02:33:03;;;;;;;4.13;2.80;;;14.80;65.70;;;;;;4924911;29;20107;-85
2022/07/31 02:35:56;;;;;;;3.95;2.38;;;14.70;62.80;;;;;;4915477;29;20078;-86
2022/07/31 02:38:44;;;;;;;4.13;3.30;;;14.70;68.90;;;;;;4926374;29;20076;-86
2022/07/31 02:41:31;;;;;;;4.20;3.70;;;14.80;99.90;;;;;;4926094;29;20051;-85
2022/07/31 02:44:19;;;;;;;7.00;3.50;;;14.70;99.90;;;;;;4919212;29;20486;-85
2022/07/31 02:47:15;;;;;;;7.85;3.90;;;14.60;99.90;;;;;;4921569;29;20091;-85
2022/07/31 02:50:05;;;;;;;7.95;3.60;;;14.60;99.90;;;;;;4916026;29;20316;-84
2022/07/31 02:52:53;;;;;;;5.05;3.80;;;14.50;99.90;;;;;;4921174;29;20068;-85
2022/07/31 02:55:44;;;;;;;3.72;3.15;;;14.50;99.90;;;;;;4918833;29;20088;-86
2022/07/31 02:58:31;;;;;;;3.50;3.20;;;14.50;99.90;;;;;;4910822;29;20044;-86
2022/07/31 03:01:23;;;;;;;5.28;3.65;;;14.40;99.90;;;;;;4923333;29;20090;-87
2022/07/31 03:04:11;;;;;;;5.23;3.37;;;14.40;99.90;;;;;;4917836;29;20043;-87
2022/07/31 03:06:59;;;;;;;4.15;2.50;;;14.50;99.90;;;;;;4918956;29;20099;-85
2022/07/31 03:09:48;;;;;;;3.22;2.85;;;14.60;99.90;;;;;;4913817;29;20048;-84
2022/07/31 03:12:40;;;;;;;5.20;2.78;;;14.70;99.90;;;;;;4932378;29;20124;-85
2022/07/31 03:15:29;;;;;;;4.18;2.78;;;14.60;99.90;;;;;;4904406;29;20041;-84
2022/07/31 03:18:23;;;;;;;6.75;2.83;;;14.50;91.20;;;;;;4922895;29;20354;-87
2022/07/31 03:21:13;;;;;;;7.70;3.05;;;14.60;78.30;;;;;;4922213;29;20166;-86
2022/07/31 03:24:02;;;;;;;3.35;2.70;;;14.60;80.90;;;;;;4920696;29;20155;-86
2022/07/31 03:26:51;;;;;;;2.90;2.70;;;14.70;83.50;;;;;;4912275;29;20059;-85
2022/07/31 03:29:39;;;;;;;5.88;3.00;;;14.70;92.00;;;;;;4909366;29;20052;-86
2022/07/31 03:32:29;;;;;;;4.22;3.50;;;14.70;85.90;;;;;;4911930;29;20048;-86
2022/07/31 03:35:17;;;;;;;4.82;3.08;;;14.80;81.90;;;;;;4932358;29;20047;-87
2022/07/31 03:38:04;;;;;;;4.72;3.47;;;14.70;99.90;;;;;;4917620;29;20126;-84
2022/07/31 03:41:12;;;;;;;4.95;3.08;;;14.50;99.90;;;;;;4917753;29;20146;-86
2022/07/31 03:43:59;;;;;;;5.10;2.95;;;14.40;99.90;;;;;;4944306;29;20043;-85
2022/07/31 03:46:47;;;;;;;5.80;3.55;;;14.40;99.90;;;;;;4939102;29;20060;-86
2022/07/31 03:49:34;;;;;;;3.60;3.30;;;14.40;99.90;;;;;;4934205;29;20439;-85
2022/07/31 03:52:22;;;;;;;4.63;3.42;;;14.40;99.90;;;;;;4933939;29;20032;-84
2022/07/31 03:55:09;;;;;;;4.80;3.45;;;14.40;99.90;;;;;;4937129;29;20040;-83
2022/07/31 03:57:58;;;;;;;4.30;2.60;;;14.40;99.90;;;;;;4934677;29;20072;-85
2022/07/31 04:01:17;;;;;;;3.90;2.67;;;14.40;99.90;;;;;;4920540;29;20126;-84
2022/07/31 04:04:06;;;;;;;4.25;2.97;;;14.40;91.50;;;;;;4925786;29;20426;-86
2022/07/31 04:06:54;;;;;;;4.38;3.78;;;14.40;93.60;;;;;;4931023;29;20048;-82
2022/07/31 04:09:41;;;;;;;6.03;3.40;;;14.40;99.90;;;;;;4928849;29;20048;-87
2022/07/31 04:12:31;;;;;;;8.27;2.72;;;14.40;99.90;;;;;;4946004;29;20048;-84
2022/07/31 04:15:23;;;;;;;4.45;3.10;;;14.40;95.50;;;;;;4923348;29;20052;-84
2022/07/31 04:18:10;;;;;;;5.85;2.80;;;14.50;77.60;;;;;;4927616;29;20107;-86
2022/07/31 04:20:57;;;;;;;5.18;2.45;;;14.60;51.50;;;;;;4927389;29;20111;-86
2022/07/31 04:23:46;;;;;;;3.83;2.85;;;14.70;40.40;;;;;;4930627;29;20043;-86
2022/07/31 04:26:36;;;;;;;5.23;3.07;;;14.70;33.20;;;;;;4948328;29;20043;-83
2022/07/31 04:29:27;;;;;;;5.18;2.83;;;14.80;27.10;;;;;;4934799;29;20080;-85
2022/07/31 04:32:17;;;;;;;4.38;3.15;;;14.90;24.50;;;;;;4940361;29;20063;-83
2022/07/31 04:35:05;;;;;;;4.75;3.10;;;15.00;16.10;;;;;;4933477;29;20048;-79
2022/07/31 04:37:55;;;;;;;7.65;2.63;;;15.10;14.80;;;;;;4934240;29;20047;-80
2022/07/31 04:40:42;;;;;;;3.83;2.35;;;15.20;10.30;;;;;;4937929;29;20036;-80
2022/07/31 04:43:30;;;;;;;4.25;2.42;;;15.20;4.60;;;;;;4937624;29;20036;-89
2022/07/31 04:46:17;;;;;;;4.70;2.65;;;15.40;1.00;;;;;;4935619;29;20040;-84
2022/07/31 04:49:06;;;;;;;3.75;3.25;;;15.50;1.00;;;;;;4940321;29;20036;-86
2022/07/31 04:51:53;;;;;;;7.88;2.63;;;15.50;1.00;;;;;;4927797;29;20056;-90
2022/07/31 04:54:40;;;;;;;3.30;2.47;;;15.60;1.00;;;;;;4927115;29;20052;-89
2022/07/31 04:57:28;;;;;;;2.80;2.20;;;15.70;1.00;;;;;;4923928;29;20044;-88
2022/07/31 05:00:15;;;;;;;3.47;2.42;;;15.90;1.00;;;;;;4927876;29;20052;-91
2022/07/31 05:03:02;;;;;;;3.55;2.22;;;16.00;1.00;;;;;;4918637;29;20059;-90
2022/07/31 05:05:49;;;;;;;4.93;2.70;;;16.20;1.00;;;;;;4918484;29;20092;-89
2022/07/31 05:08:39;;;;;;;2.63;2.42;;;16.40;1.00;;;;;;4916283;29;20040;-89
2022/07/31 05:11:26;;;;;;;4.57;2.47;;;16.50;1.00;;;;;;4917366;29;20323;-87
2022/07/31 05:14:18;;;;;;;4.10;2.53;;;16.70;1.00;;;;;;4918901;29;20052;-89
2022/07/31 05:17:05;;;;;;;2.40;2.20;;;16.80;1.00;;;;;;4915645;29;20059;-89
2022/07/31 05:19:52;;;;;;;3.53;2.30;;;17.00;1.00;;;;;;4914048;29;20096;-90
2022/07/31 05:22:40;;;;;;;4.03;2.58;;;17.20;1.00;;;;;;4920947;29;20048;-89
2022/07/31 05:25:27;;;;;;;6.35;2.42;;;17.30;1.00;;;;;;4913369;29;20055;-88
2022/07/31 05:28:14;;;;;;;4.63;2.55;;;17.50;1.00;;;;;;4919058;29;20059;-90
2022/07/31 05:31:03;;;;;;;8.38;2.58;;;17.60;1.00;;;;;;4911481;29;20041;-89
2022/07/31 05:33:51;;;;;;;3.38;2.33;;;17.60;1.00;;;;;;4919926;29;20132;-87
2022/07/31 05:36:38;;;;;;;3.25;2.45;;;17.70;1.00;;;;;;4916771;29;20044;-86
2022/07/31 05:39:26;;;;;;;3.55;2.50;;;17.80;1.00;;;;;;4916719;29;20048;-86
2022/07/31 05:42:15;;;;;;;2.80;2.15;;;18.00;1.00;;;;;;4918681;29;20171;-88
2022/07/31 05:45:05;;;;;;;4.00;2.00;;;18.20;1.00;;;;;;4919191;29;20079;-89
2022/07/31 05:47:54;;;;;;;3.78;2.25;;;18.20;1.00;;;;;;4921806;29;20087;-89
2022/07/31 05:50:42;;;;;;;3.42;2.28;;;18.40;1.00;;;;;;4911657;29;20401;-91
2022/07/31 05:53:29;;;;;;;4.82;2.17;;;18.40;1.00;;;;;;4920300;29;20094;-88
2022/07/31 05:56:16;;;;;;;5.15;2.50;;;18.40;1.00;;;;;;4916221;29;20048;-89
2022/07/31 05:59:04;;;;;;;3.38;2.17;;;18.50;1.00;;;;;;4915083;29;20048;-89
2022/07/31 06:01:55;;;;;;;4.05;2.30;;;18.50;1.00;;;;;;4917464;29;20044;-89
2022/07/31 06:04:42;;;;;;;2.92;2.35;;;18.50;1.00;;;;;;4919227;29;20127;-90
2022/07/31 06:07:32;;;;;;;3.88;2.30;;;18.60;1.00;;;;;;4918602;29;20139;-91
2022/07/31 06:10:22;;;;;;;5.20;2.40;;;18.60;1.00;;;;;;4915768;29;20052;-89
2022/07/31 06:13:13;;;;;;;3.78;2.20;;;18.50;1.00;;;;;;4913132;29;20052;-90
2022/07/31 06:16:00;;;;;;;5.30;2.30;;;18.60;1.00;;;;;;4918798;29;20085;-90
2022/07/31 06:18:47;;;;;;;3.15;2.33;;;18.80;1.00;;;;;;4910474;29;20336;-88
2022/07/31 06:21:34;;;;;;;3.35;2.08;;;19.00;1.00;;;;;;4917282;29;20059;-88
2022/07/31 06:24:22;;;;;;;6.00;2.22;;;19.20;1.00;;;;;;4917861;29;20131;-86
2022/07/31 06:27:10;;;;;;;2.15;1.95;;;19.50;1.00;;;;;;4928652;29;20204;-90
2022/07/31 06:30:17;;;;;;;4.55;1.85;;;19.50;1.00;;;;;;4913123;29;20118;-88
2022/07/31 06:33:04;;;;;;;3.22;2.00;;;19.60;1.00;;;;;;4910992;29;20131;-88
2022/07/31 06:35:54;;;;;;;4.30;2.40;;;19.50;1.00;;;;;;4916916;29;20094;-87
2022/07/31 06:38:41;;;;;;;3.13;2.17;;;19.40;1.00;;;;;;4914810;29;20495;-86
2022/07/31 06:41:43;;;;;;;2.78;2.25;;;19.50;1.00;;;;;;4925538;29;20055;-88
2022/07/31 06:44:32;;;;;;;2.92;2.15;;;19.60;1.00;;;;;;4916674;29;20071;-87
2022/07/31 06:47:22;;;;;;;4.30;2.10;;;19.70;1.00;;;;;;4912174;29;20079;-88
2022/07/31 06:50:09;;;;;;;2.92;2.20;;;19.80;1.00;;;;;;4914067;29;20548;-88
2022/07/31 06:52:56;;;;;;;4.75;2.42;;;20.00;1.00;;;;;;4918825;29;20044;-91
2022/07/31 06:55:44;;;;;;;2.88;2.08;;;20.10;1.00;;;;;;4922016;29;20402;-91
2022/07/31 06:58:33;;;;;;;4.28;2.10;;;20.30;1.00;;;;;;4914896;29;20164;-87
2022/07/31 07:01:24;;;;;;;3.38;1.80;;;20.40;1.00;;;;;;4917297;29;20048;-88
2022/07/31 07:04:11;;;;;;;3.55;2.10;;;20.40;1.00;;;;;;4914986;29;20041;-89
2022/07/31 07:06:58;;;;;;;4.32;1.80;;;20.50;1.00;;;;;;4908998;29;20040;-88
2022/07/31 07:09:47;;;;;;;3.30;2.08;;;20.50;1.00;;;;;;4917480;29;20108;-90
2022/07/31 07:12:38;;;;;;;4.28;2.13;;;20.50;1.00;;;;;;4916206;29;20044;-88
2022/07/31 07:15:37;;;;;;;3.40;2.00;;;20.60;1.00;;;;;;4908716;29;20044;-91
2022/07/31 07:18:24;;;;;;;3.58;2.22;;;20.90;1.00;;;;;;4915301;29;20164;-89
2022/07/31 07:21:12;;;;;;;5.80;2.13;;;20.90;1.00;;;;;;4916270;29;20068;-87
2022/07/31 07:24:02;;;;;;;2.33;1.83;;;20.90;1.00;;;;;;4914443;29;20048;-90
2022/07/31 07:26:52;;;;;;;4.30;2.10;;;21.10;1.00;;;;;;4916677;29;20071;-87
2022/07/31 07:29:39;;;;;;;2.65;2.03;;;21.30;1.00;;;;;;4917419;29;20358;-89
2022/07/31 07:32:28;;;;;;;2.60;2.00;;;21.70;1.00;;;;;;4915645;29;20040;-87
2022/07/31 07:35:16;;;;;;;2.75;1.90;;;22.40;1.00;;;;;;4915412;29;20055;-89
2022/07/31 07:38:03;;;;;;;2.63;1.85;;;22.80;1.00;;;;;;4905228;29;20041;-89
2022/07/31 07:40:51;;;;;;;4.82;2.00;;;23.20;1.00;;;;;;4909439;29;20052;-89
2022/07/31 07:43:38;;;;;;;2.58;1.90;;;23.40;1.00;;;;;;4918580;29;20044;-90
2022/07/31 07:46:32;;;;;;;3.30;1.95;;;23.50;1.00;;;;;;4913814;29;20052;-88
2022/07/31 07:49:20;;;;;;;2.63;1.48;;;24.00;1.00;;;;;;4912517;29;20050;-89
2022/07/31 07:52:08;;;;;;;2.55;1.60;;;24.50;1.00;;;;;;4911472;29;20063;-89
2022/07/31 07:54:55;;;;;;;3.53;1.38;;;24.90;1.00;;;;;;4911226;29;20048;-89
2022/07/31 07:57:46;;;;;;;2.47;1.35;;;25.40;1.00;;;;;;4907086;29;20471;-89
2022/07/31 08:00:34;;;;;;;1.38;1.13;;;25.90;1.00;;;;;;4920457;29;20458;-86
2022/07/31 08:03:24;;;;;;;3.15;1.30;;;26.50;1.00;;;;;;4913451;29;20055;-88
2022/07/31 08:06:32;;;;;;;2.05;1.52;;;26.80;1.00;;;;;;4921494;29;20044;-88
2022/07/31 08:09:21;;;;;;;2.90;1.35;;;27.00;1.00;;;;;;4912103;29;20054;-85
2022/07/31 08:12:09;;;;;;;2.47;1.17;;;26.80;1.00;;;;;;4910818;29;20568;-88
2022/07/31 08:14:56;;;;;;;1.98;1.10;;;26.90;1.00;;;;;;4916692;29;20074;-87
2022/07/31 08:17:44;;;;;;;3.58;1.42;;;27.00;1.00;;;;;;4908777;29;20052;-88
2022/07/31 08:20:35;;;;;;;2.03;1.40;;;26.70;1.00;;;;;;4913737;29;20229;-89
2022/07/31 08:23:25;;;;;;;2.97;1.58;;;26.50;1.00;;;;;;4913854;29;20052;-90
2022/07/31 08:26:12;;;;;;;1.85;1.20;;;26.20;1.00;;;;;;4909456;29;20056;-89
2022/07/31 08:29:01;;;;;;;2.55;1.00;;;26.80;1.00;;;;;;4914997;29;20079;-90
2022/07/31 08:31:53;;;;;;;2.15;1.10;;;27.80;1.00;;;;;;4909890;29;20112;-91
2022/07/31 08:34:40;;;;;;;3.22;1.30;;;29.20;1.00;;;;;;4906484;29;20116;-90
2022/07/31 08:37:29;;;;;;;3.47;0.90;;;29.90;1.00;;;;;;4912020;29;20044;-87
2022/07/31 08:40:37;;;;;;;1.45;0.95;;;30.30;99.90;;;;;;4914746;29;20044;-92
2022/07/31 08:43:30;;;;;;;2.28;1.10;;;29.80;99.90;;;;;;4916170;29;20050;-88
2022/07/31 08:46:38;;;;;;;1.23;1.10;;;30.30;99.90;;;;;;4917357;29;20111;-89
2022/07/31 08:49:30;;;;;;;3.17;1.10;;;29.90;99.90;;;;;;4917165;29;20055;-90
2022/07/31 08:52:25;;;;;;;3.55;1.10;;;29.20;99.90;;;;;;4916933;29;20115;-88
2022/07/31 08:55:13;;;;;;;4.55;1.20;;;29.20;99.90;;;;;;4917707;29;20403;-89
2022/07/31 08:58:20;;;;;;;3.53;1.30;;;29.70;99.90;;;;;;4919898;29;20107;-87
2022/07/31 09:01:11;;;;;;;1.90;1.13;;;30.20;99.90;;;;;;4921426;29;20585;-88
2022/07/31 09:03:59;;;;;;;1.65;0.98;;;31.00;99.90;;;;;;4921341;29;20159;-87
2022/07/31 09:06:49;;;;;;;1.60;1.00;;;31.80;99.90;;;;;;4913018;29;20048;-90
2022/07/31 09:09:43;;;;;;;1.05;0.85;;;32.00;99.90;;;;;;4919883;29;20044;-89
2022/07/31 09:12:38;;;;;;;;;;;32.00;99.90;;;;;;4917063;29;20367;-86
2022/07/31 09:15:29;;;;;;;3.15;1.20;;;31.60;99.90;;;;;;4917109;29;19923;-87
2022/07/31 09:18:23;;;;;;;1.13;0.98;;;31.10;99.90;;;;;;4919402;29;20071;-87
2022/07/31 09:21:13;;;;;;;2.63;1.17;;;30.60;99.90;;;;;;4918759;29;20056;-88
2022/07/31 09:24:31;;;;;;;7.82;1.10;;;30.70;99.90;;;;;;4920382;29;20048;-87
2022/07/31 09:27:27;;;;;;;1.40;1.10;;;31.50;99.90;;;;;;4922306;29;20123;-85
2022/07/31 09:30:14;;;;;;;2.80;1.30;;;30.40;99.90;;;;;;4923972;29;20473;-86
2022/07/31 09:33:16;;;;;;;2.50;1.10;;;29.90;99.90;;;;;;4913948;29;20048;-86
2022/07/31 09:36:04;;;;;;;1.17;1.07;;;30.50;99.90;;;;;;4912779;29;20048;-85
2022/07/31 09:38:55;;;;;;;4.22;1.23;;;31.20;99.90;;;;;;4929829;29;20062;-89
2022/07/31 09:41:52;;;;;;;3.50;1.20;;;31.70;99.90;;;;;;4922014;29;20127;-89
2022/07/31 09:44:50;;;;;;;4.93;1.23;;;31.80;99.90;;;;;;4918100;29;20054;-85
2022/07/31 09:47:37;;;;;;;3.10;1.10;;;31.60;99.90;;;;;;4921286;29;20044;-86
2022/07/31 09:50:24;;;;;;;2.83;1.00;;;31.60;99.90;;;;;;4916633;29;20521;-87
2022/07/31 09:53:13;;;;;;;3.33;1.10;;;31.40;99.90;;;;;;4920697;29;20059;-89
2022/07/31 09:56:00;;;;;;;1.60;1.10;;;31.00;99.90;;;;;;4925821;29;20044;-86
2022/07/31 09:58:47;;;;;;;1.75;1.10;;;30.60;99.90;;;;;;4924205;29;20386;-87
2022/07/31 10:01:36;;;;;;;3.15;1.00;;;31.50;99.90;;;;;;4920014;29;20048;-89
2022/07/31 10:04:26;;;;;;;1.15;1.00;;;32.90;99.90;;;;;;4923052;29;20343;-89
2022/07/31 10:07:15;;;;;;;3.08;1.00;;;34.30;99.90;;;;;;4926204;29;20056;-89
2022/07/31 10:10:21;;;;;;;2.55;1.10;;;35.40;99.90;;;;;;4917960;29;20044;-85
2022/07/31 10:13:16;;;;;;;2.63;1.33;;;33.60;99.90;;;;;;4920446;29;20044;-89
2022/07/31 10:16:13;;;;;;;2.45;1.33;;;31.80;99.90;;;;;;4921631;29;20056;-86
2022/07/31 10:19:18;;;;;;;2.83;1.27;;;31.40;99.90;;;;;;4923003;29;20450;-89
2022/07/31 10:22:08;;;;;;;0.80;0.80;;;31.80;99.90;;;;;;4917080;29;20044;-84
2022/07/31 10:25:00;;;;;;;2.20;1.10;;;31.50;99.90;;;;;;4920821;29;20139;-87
2022/07/31 10:27:48;;;;;;;2.20;1.25;;;31.50;99.90;;;;;;4920315;29;20135;-87
2022/07/31 10:30:42;;;;;;;4.15;0.98;;;31.30;99.90;;;;;;4915452;29;20044;-87
2022/07/31 10:33:32;;;;;;;3.08;1.10;;;31.40;99.90;;;;;;4920112;29;20048;-87
2022/07/31 10:36:36;;;;;;;4.00;1.20;;;32.50;99.90;;;;;;4914991;29;20048;-87
2022/07/31 10:39:40;;;;;;;5.22;1.00;;;34.20;99.90;;;;;;4914694;29;20418;-88
2022/07/31 10:42:34;;;;;;;4.05;1.02;;;34.50;99.90;;;;;;4915147;29;20068;-87
2022/07/31 10:45:25;;;;;;;1.35;0.70;;;34.30;99.90;;;;;;4917142;29;20131;-87
2022/07/31 10:48:12;;;;;;;4.90;1.10;;;33.80;99.90;;;;;;4919627;29;20044;-88
2022/07/31 10:51:07;;;;;;;1.13;0.90;;;32.10;99.90;;;;;;4911272;29;20040;-87
2022/07/31 10:54:00;;;;;;;2.65;1.10;;;30.80;99.90;;;;;;4908018;29;20048;-87
2022/07/31 10:56:48;;;;;;;3.13;1.02;;;30.30;99.90;;;;;;4917129;29;20378;-86
2022/07/31 10:59:35;;;;;;;2.78;1.20;;;30.00;99.90;;;;;;4916653;29;20052;-86
2022/07/31 11:02:33;;;;;;;2.85;1.30;;;29.90;99.90;;;;;;4918461;29;20103;-87
2022/07/31 11:05:26;;;;;;;4.30;1.38;;;29.80;99.90;;;;;;4916228;29;20051;-86
2022/07/31 11:08:14;;;;;;;6.20;1.30;;;29.40;99.90;;;;;;4908228;29;20040;-88
2022/07/31 11:11:01;;;;;;;1.90;1.30;;;28.90;99.90;;;;;;4911923;29;20055;-87
2022/07/31 11:13:51;;;;;;;3.35;1.42;;;28.90;99.90;;;;;;4916954;29;20048;-88
2022/07/31 11:16:52;;;;;;;5.65;1.30;;;28.80;99.90;;;;;;4919932;29;20056;-85
2022/07/31 11:19:41;;;;;;;2.92;1.10;;;29.40;99.90;;;;;;4915906;29;20063;-85
2022/07/31 11:22:28;;;;;;;2.95;1.42;;;29.90;99.90;;;;;;4917655;29;20119;-86
2022/07/31 11:25:18;;;;;;;2.75;1.00;;;30.90;99.90;;;;;;4915850;29;20171;-86
2022/07/31 11:28:17;;;;;;;1.95;1.08;;;31.80;99.90;;;;;;4912534;29;20036;-89
2022/07/31 11:31:08;;;;;;;2.42;1.20;;;33.20;99.90;;;;;;4915885;29;20050;-89
2022/07/31 11:34:02;;;;;;;1.88;0.90;;;34.90;99.90;;;;;;4912098;29;20063;-87
2022/07/31 11:36:56;;;;;;;3.63;0.90;;;35.90;99.90;;;;;;4915898;29;20063;-86
2022/07/31 11:39:43;;;;;;;2.00;1.30;;;34.60;99.90;;;;;;4917081;29;20431;-86
2022/07/31 11:42:43;;;;;;;2.67;1.17;;;33.40;99.90;;;;;;4917800;29;20052;-88
2022/07/31 11:45:43;;;;;;;1.45;1.10;;;32.60;99.90;;;;;;4921470;29;20043;-87
2022/07/31 11:48:31;;;;;;;2.15;1.10;;;31.00;99.90;;;;;;4917950;29;20044;-87
2022/07/31 11:51:29;;;;;;;4.30;1.23;;;30.10;99.90;;;;;;4916848;29;20052;-88
2022/07/31 11:54:26;;;;;;;1.73;1.23;;;31.80;99.90;;;;;;4919534;29;20048;-88
2022/07/31 11:57:13;;;;;;;3.55;0.98;;;32.60;99.90;;;;;;4915919;29;20245;-86
2022/07/31 12:00:15;;;;;;;3.63;1.20;;;32.40;99.90;;;;;;4913303;29;20100;-87
2022/07/31 12:03:33;;;;;;;4.57;1.27;;;32.20;99.90;;;;;;4916818;29;20048;-91
2022/07/31 12:06:25;;;;;;;3.72;1.20;;;33.00;99.90;;;;;;4915068;29;20359;-88
2022/07/31 12:09:15;;;;;;;2.40;1.05;;;33.00;99.90;;;;;;4923669;29;20052;-88
2022/07/31 12:12:22;;;;;;;1.75;1.00;;;34.50;99.90;;;;;;4914916;29;20063;-87
2022/07/31 12:15:18;;;;;;;3.35;1.08;;;36.90;99.90;;;;;;4920478;29;20379;-88
2022/07/31 12:18:06;;;;;;;4.22;1.00;;;37.90;99.90;;;;;;4926985;29;20044;-87
2022/07/31 12:20:57;;;;;;;2.03;1.13;;;37.50;99.90;;;;;;4919108;29;20507;-87
2022/07/31 12:23:47;;;;;;;4.18;1.20;;;35.80;99.90;;;;;;4919544;29;20343;-86
2022/07/31 12:26:36;;;;;;;2.97;1.17;;;34.60;99.90;;;;;;4917373;29;20051;-87
2022/07/31 12:29:44;;;;;;;1.70;0.90;;;33.80;99.90;;;;;;4919294;29;20096;-86
2022/07/31 12:32:31;;;;;;;1.90;1.00;;;34.40;99.90;;;;;;4926329;29;20059;-86
2022/07/31 12:35:21;;;;;;;6.75;1.20;;;34.40;99.90;;;;;;4919080;29;20040;-87
2022/07/31 12:38:09;;;;;;;1.65;1.10;;;33.10;99.90;;;;;;4917168;29;20095;-85
2022/07/31 12:41:20;;;;;;;3.38;1.20;;;32.00;99.90;;;;;;4919398;29;20036;-88
2022/07/31 12:44:11;;;;;;;2.05;0.93;;;31.90;99.90;;;;;;4914611;29;20044;-89
2022/07/31 12:47:00;;;;;;;3.17;1.20;;;31.80;99.90;;;;;;4919290;29;20104;-87
2022/07/31 12:49:48;;;;;;;3.10;1.10;;;31.50;99.90;;;;;;4911131;29;20052;-85
2022/07/31 12:52:36;;;;;;;2.17;1.05;;;32.50;99.90;;;;;;4921272;29;20102;-86
2022/07/31 12:55:26;;;;;;;3.75;1.00;;;33.70;99.90;;;;;;4909502;29;20143;-85
2022/07/31 12:58:16;;;;;;;2.65;0.98;;;34.70;99.90;;;;;;4913155;29;20047;-85
2022/07/31 13:01:03;;;;;;;1.17;1.00;;;33.70;99.90;;;;;;4922566;29;20052;-86
2022/07/31 13:03:54;;;;;;;3.75;1.00;;;32.70;99.90;;;;;;4931976;29;20048;-86
2022/07/31 13:06:47;;;;;;;1.75;1.00;;;32.70;99.90;;;;;;4928158;29;20109;-84
2022/07/31 13:09:35;;;;;;;1.85;0.90;;;33.20;99.90;;;;;;4929524;29;20048;-88
2022/07/31 13:12:26;;;;;;;4.47;1.05;;;33.20;99.90;;;;;;4934745;29;20140;-86
2022/07/31 13:15:28;;;;;;;2.42;0.90;;;34.70;99.90;;;;;;4938749;29;20051;-83
2022/07/31 13:18:16;;;;;;;3.33;1.10;;;36.00;99.90;;;;;;4946973;29;20099;-85
2022/07/31 13:21:04;;;;;;;3.83;0.90;;;36.60;99.90;;;;;;4938618;29;20080;-84
2022/07/31 13:23:54;;;;;;;1.83;0.90;;;35.80;99.90;;;;;;4933219;29;20048;-86
2022/07/31 13:26:44;;;;;;;2.08;0.93;;;35.90;99.90;;;;;;4949429;29;20044;-92
2022/07/31 13:29:31;;;;;;;3.65;0.93;;;35.70;99.90;;;;;;4941182;29;20044;-88
2022/07/31 13:32:21;;;;;;;1.73;0.80;;;35.40;99.90;;;;;;4930144;29;20107;-89
2022/07/31 13:35:13;;;;;;;3.15;0.90;;;35.90;99.90;;;;;;4924907;29;20465;-87
2022/07/31 13:38:17;;;;;;;1.98;1.00;;;36.20;99.90;;;;;;4926207;29;20122;-86
2022/07/31 13:41:19;;;;;;;1.45;1.10;;;36.30;99.90;;;;;;4903027;29;20048;-88
2022/07/31 13:44:09;;;;;;;2.90;1.00;;;36.10;99.90;;;;;;4920264;29;20424;-89
2022/07/31 13:46:57;;;;;;;2.35;1.08;;;35.50;99.90;;;;;;4907555;29;20108;-83
2022/07/31 13:49:47;;;;;;;1.13;1.00;;;35.00;99.90;;;;;;4910206;29;20063;-87
2022/07/31 13:52:37;;;;;;;2.40;1.10;;;35.10;99.90;;;;;;4918587;29;20179;-87
2022/07/31 13:55:27;;;;;;;2.10;1.00;;;36.00;99.90;;;;;;4916048;29;20475;-89
2022/07/31 13:58:15;;;;;;;1.50;1.00;;;36.60;99.90;;;;;;4912411;29;20044;-87
2022/07/31 14:01:02;;;;;;;1.50;0.73;;;35.90;99.90;;;;;;4919140;29;20458;-85
2022/07/31 14:03:50;;;;;;;1.77;0.63;;;36.40;99.90;;;;;;4911796;29;20060;-86
2022/07/31 14:06:40;;;;;;;2.50;0.80;;;36.50;99.90;;;;;;4919674;29;20067;-87
2022/07/31 14:09:41;;;;;;;2.45;0.90;;;37.30;99.90;;;;;;4917187;29;20066;-88
2022/07/31 14:12:45;;;;;;;2.88;0.75;;;38.40;99.90;;;;;;4923185;29;20470;-85
2022/07/31 14:15:33;;;;;;;1.00;0.85;;;38.70;99.90;;;;;;4912465;29;20044;-90
2022/07/31 14:18:23;;;;;;;2.60;0.98;;;37.90;99.90;;;;;;4910200;29;20131;-89
2022/07/31 14:21:10;;;;;;;1.80;0.98;;;36.90;99.90;;;;;;4920538;29;20049;-90
2022/07/31 14:24:03;;;;;;;3.28;1.38;;;37.20;99.90;;;;;;4919868;29;20162;-89
2022/07/31 14:26:50;;;;;;;0.82;0.60;;;38.30;99.90;;;;;;4916709;29;20055;-85
2022/07/31 14:29:40;;;;;;;2.78;1.00;;;38.90;99.90;;;;;;4912644;29;20048;-88
2022/07/31 14:32:30;;;;;;;1.98;0.80;;;39.60;99.90;;;;;;4918294;29;20052;-86
2022/07/31 14:35:17;;;;;;;1.55;0.90;;;40.00;99.90;;;;;;4929132;29;20051;-85
2022/07/31 14:38:04;;;;;;;1.15;0.75;;;39.40;99.90;;;;;;4926710;29;20048;-87
2022/07/31 14:40:51;;;;;;;2.03;1.00;;;36.60;99.90;;;;;;4925538;29;20047;-88
2022/07/31 14:43:38;;;;;;;3.35;1.10;;;34.90;99.90;;;;;;4931026;29;20060;-81
2022/07/31 14:46:25;;;;;;;2.15;0.93;;;34.10;99.90;;;;;;4940145;29;20059;-85
2022/07/31 14:49:15;;;;;;;2.97;0.98;;;33.60;99.90;;;;;;4935264;29;20044;-85
2022/07/31 14:52:06;;;;;;;11.30;1.60;;;34.10;99.90;;;;;;4931490;29;20032;-82
2022/07/31 14:54:57;;;;;;;6.00;1.00;;;35.70;99.90;;;;;;4931117;29;20159;-80